Cresskill, New Jersey
Current Conditions -  °F | °C
As of 10:51 AM on Friday 28 Nov 2014 (Local Time) from KTEB Reporting Station
Clear Clear  
Wind Chill: -3°   Ceiling: Unl
Heat Index:   Visibility: 10mi
Dew Point: -7°   Wind: 14mph
Humidity: 52%   Direction: 330°NNW
Pressure: 30.17"   Gusts: 24mph
Location:  40.94°N, 73.96°W
Report Text: KTEB 281551Z 33012G21KT 10SM CLR 02/M07 A3017 RMK AO2 SLP217 T00221067 $
Loading
Personal Weather Stations






























Interactive Weather Map New forecast layout! Learn more

10-Day Weather Forecast

Advertisements
Track Severe Weather on mobile